sensor_id;sensor_type;location;lat;lon;timestamp;P1;durP1;ratioP1;P2;durP2;ratioP2
6131;SDS011;3097;42.692;23.278;2023-04-19T00:00:18;5.83;;;5.00;;
6131;SDS011;3097;42.692;23.278;2023-04-19T00:02:44;8.67;;;6.07;;
6131;SDS011;3097;42.692;23.278;2023-04-19T00:05:09;17.97;;;9.40;;
6131;SDS011;3097;42.692;23.278;2023-04-19T00:07:37;24.60;;;12.93;;
6131;SDS011;3097;42.692;23.278;2023-04-19T00:10:03;14.40;;;8.90;;
6131;SDS011;3097;42.692;23.278;2023-04-19T00:12:28;12.27;;;8.17;;
6131;SDS011;3097;42.692;23.278;2023-04-19T00:14:54;9.63;;;5.70;;
6131;SDS011;3097;42.692;23.278;2023-04-19T00:17:19;5.50;;;4.83;;
6131;SDS011;3097;42.692;23.278;2023-04-19T00:19:45;11.43;;;6.50;;
6131;SDS011;3097;42.692;23.278;2023-04-19T00:22:11;8.80;;;6.20;;
6131;SDS011;3097;42.692;23.278;2023-04-19T00:24:36;7.17;;;5.00;;
6131;SDS011;3097;42.692;23.278;2023-04-19T00:27:01;5.00;;;4.50;;
6131;SDS011;3097;42.692;23.278;2023-04-19T00:29:27;5.70;;;4.53;;
6131;SDS011;3097;42.692;23.278;2023-04-19T00:31:53;4.40;;;4.00;;
6131;SDS011;3097;42.692;23.278;2023-04-19T00:34:18;4.00;;;3.43;;
6131;SDS011;3097;42.692;23.278;2023-04-19T00:36:44;3.60;;;3.30;;
6131;SDS011;3097;42.692;23.278;2023-04-19T00:39:09;2.90;;;2.70;;
6131;SDS011;3097;42.692;23.278;2023-04-19T00:41:35;2.80;;;2.60;;
6131;SDS011;3097;42.692;23.278;2023-04-19T00:44:00;3.87;;;2.80;;
6131;SDS011;3097;42.692;23.278;2023-04-19T00:46:26;3.07;;;2.77;;
6131;SDS011;3097;42.692;23.278;2023-04-19T00:48:51;4.20;;;3.13;;
6131;SDS011;3097;42.692;23.278;2023-04-19T00:51:17;3.43;;;3.13;;
6131;SDS011;3097;42.692;23.278;2023-04-19T00:53:43;2.97;;;2.77;;
6131;SDS011;3097;42.692;23.278;2023-04-19T00:56:10;3.50;;;3.20;;
6131;SDS011;3097;42.692;23.278;2023-04-19T00:58:36;3.50;;;3.00;;
6131;SDS011;3097;42.692;23.278;2023-04-19T01:01:03;4.20;;;3.37;;
6131;SDS011;3097;42.692;23.278;2023-04-19T01:03:29;4.07;;;3.43;;
6131;SDS011;3097;42.692;23.278;2023-04-19T01:05:54;4.60;;;2.90;;
6131;SDS011;3097;42.692;23.278;2023-04-19T01:08:21;5.97;;;3.50;;
6131;SDS011;3097;42.692;23.278;2023-04-19T01:10:47;3.13;;;2.83;;
6131;SDS011;3097;42.692;23.278;2023-04-19T01:13:12;3.13;;;2.63;;
6131;SDS011;3097;42.692;23.278;2023-04-19T01:15:37;2.80;;;2.60;;
6131;SDS011;3097;42.692;23.278;2023-04-19T01:18:03;2.83;;;2.47;;
6131;SDS011;3097;42.692;23.278;2023-04-19T01:20:28;2.30;;;2.10;;
6131;SDS011;3097;42.692;23.278;2023-04-19T01:22:54;3.00;;;2.70;;
6131;SDS011;3097;42.692;23.278;2023-04-19T01:25:19;2.20;;;2.00;;
6131;SDS011;3097;42.692;23.278;2023-04-19T01:27:45;3.00;;;2.80;;
6131;SDS011;3097;42.692;23.278;2023-04-19T01:30:11;3.17;;;2.87;;
6131;SDS011;3097;42.692;23.278;2023-04-19T01:32:36;2.80;;;2.60;;
6131;SDS011;3097;42.692;23.278;2023-04-19T01:35:02;2.73;;;2.47;;
6131;SDS011;3097;42.692;23.278;2023-04-19T01:37:28;2.43;;;2.23;;
6131;SDS011;3097;42.692;23.278;2023-04-19T01:39:53;3.07;;;2.60;;
6131;SDS011;3097;42.692;23.278;2023-04-19T01:42:19;2.60;;;2.40;;
6131;SDS011;3097;42.692;23.278;2023-04-19T01:44:44;4.47;;;2.60;;
6131;SDS011;3097;42.692;23.278;2023-04-19T01:47:09;3.30;;;2.43;;
6131;SDS011;3097;42.692;23.278;2023-04-19T01:49:35;2.40;;;2.20;;
6131;SDS011;3097;42.692;23.278;2023-04-19T01:52:00;2.50;;;2.30;;
6131;SDS011;3097;42.692;23.278;2023-04-19T01:54:26;2.90;;;2.70;;
6131;SDS011;3097;42.692;23.278;2023-04-19T01:56:51;3.73;;;3.20;;
6131;SDS011;3097;42.692;23.278;2023-04-19T01:59:17;3.00;;;2.80;;
6131;SDS011;3097;42.692;23.278;2023-04-19T02:01:42;3.10;;;2.90;;
6131;SDS011;3097;42.692;23.278;2023-04-19T02:04:08;3.43;;;3.00;;
6131;SDS011;3097;42.692;23.278;2023-04-19T02:06:33;3.23;;;3.00;;
6131;SDS011;3097;42.692;23.278;2023-04-19T02:08:59;3.03;;;2.83;;
6131;SDS011;3097;42.692;23.278;2023-04-19T02:11:24;2.90;;;2.70;;
6131;SDS011;3097;42.692;23.278;2023-04-19T02:13:49;3.00;;;2.80;;
6131;SDS011;3097;42.692;23.278;2023-04-19T02:16:15;3.20;;;3.00;;
6131;SDS011;3097;42.692;23.278;2023-04-19T02:18:40;3.33;;;3.13;;
6131;SDS011;3097;42.692;23.278;2023-04-19T02:21:06;4.20;;;3.10;;
6131;SDS011;3097;42.692;23.278;2023-04-19T02:23:33;2.87;;;2.67;;
6131;SDS011;3097;42.692;23.278;2023-04-19T02:25:59;3.63;;;3.33;;
6131;SDS011;3097;42.692;23.278;2023-04-19T02:28:28;3.43;;;3.20;;
6131;SDS011;3097;42.692;23.278;2023-04-19T02:30:56;4.53;;;3.30;;
6131;SDS011;3097;42.692;23.278;2023-04-19T02:33:22;3.97;;;3.67;;
6131;SDS011;3097;42.692;23.278;2023-04-19T02:35:48;4.20;;;3.23;;
6131;SDS011;3097;42.692;23.278;2023-04-19T02:38:13;4.77;;;4.30;;
6131;SDS011;3097;42.692;23.278;2023-04-19T02:40:39;4.20;;;3.80;;
6131;SDS011;3097;42.692;23.278;2023-04-19T02:43:04;4.50;;;4.10;;
6131;SDS011;3097;42.692;23.278;2023-04-19T02:45:30;4.23;;;3.83;;
6131;SDS011;3097;42.692;23.278;2023-04-19T02:47:55;5.80;;;5.03;;
6131;SDS011;3097;42.692;23.278;2023-04-19T02:50:21;4.03;;;3.63;;
6131;SDS011;3097;42.692;23.278;2023-04-19T02:52:46;4.60;;;4.20;;
6131;SDS011;3097;42.692;23.278;2023-04-19T02:55:12;4.50;;;4.10;;
6131;SDS011;3097;42.692;23.278;2023-04-19T02:57:37;4.87;;;4.37;;
6131;SDS011;3097;42.692;23.278;2023-04-19T03:00:03;3.97;;;3.67;;
6131;SDS011;3097;42.692;23.278;2023-04-19T03:02:29;4.67;;;3.70;;
6131;SDS011;3097;42.692;23.278;2023-04-19T03:04:55;4.67;;;4.27;;
6131;SDS011;3097;42.692;23.278;2023-04-19T03:07:20;6.40;;;5.80;;
6131;SDS011;3097;42.692;23.278;2023-04-19T03:09:46;4.93;;;4.40;;
6131;SDS011;3097;42.692;23.278;2023-04-19T03:12:11;4.07;;;3.77;;
6131;SDS011;3097;42.692;23.278;2023-04-19T03:14:36;4.90;;;4.50;;
6131;SDS011;3097;42.692;23.278;2023-04-19T03:17:02;4.10;;;3.80;;
6131;SDS011;3097;42.692;23.278;2023-04-19T03:19:27;4.03;;;3.63;;
6131;SDS011;3097;42.692;23.278;2023-04-19T03:21:53;4.10;;;3.80;;
6131;SDS011;3097;42.692;23.278;2023-04-19T03:24:18;4.80;;;3.53;;
6131;SDS011;3097;42.692;23.278;2023-04-19T03:26:44;5.63;;;5.13;;
6131;SDS011;3097;42.692;23.278;2023-04-19T03:29:10;4.10;;;3.80;;
6131;SDS011;3097;42.692;23.278;2023-04-19T03:31:37;4.60;;;4.20;;
6131;SDS011;3097;42.692;23.278;2023-04-19T03:34:02;4.43;;;4.03;;
6131;SDS011;3097;42.692;23.278;2023-04-19T03:36:28;4.27;;;3.90;;
6131;SDS011;3097;42.692;23.278;2023-04-19T03:38:53;3.87;;;3.57;;
6131;SDS011;3097;42.692;23.278;2023-04-19T03:41:22;3.87;;;3.57;;
6131;SDS011;3097;42.692;23.278;2023-04-19T03:43:49;4.73;;;4.33;;
6131;SDS011;3097;42.692;23.278;2023-04-19T03:46:16;4.20;;;3.90;;
6131;SDS011;3097;42.692;23.278;2023-04-19T03:48:42;4.93;;;4.43;;
6131;SDS011;3097;42.692;23.278;2023-04-19T03:51:07;5.63;;;4.23;;
6131;SDS011;3097;42.692;23.278;2023-04-19T03:53:33;4.50;;;4.10;;
6131;SDS011;3097;42.692;23.278;2023-04-19T03:55:59;4.40;;;4.00;;
6131;SDS011;3097;42.692;23.278;2023-04-19T03:58:24;5.17;;;4.77;;
6131;SDS011;3097;42.692;23.278;2023-04-19T04:00:50;4.60;;;4.20;;
6131;SDS011;3097;42.692;23.278;2023-04-19T04:03:16;3.87;;;3.57;;
6131;SDS011;3097;42.692;23.278;2023-04-19T04:05:41;4.30;;;3.90;;
6131;SDS011;3097;42.692;23.278;2023-04-19T04:08:07;3.97;;;3.57;;
6131;SDS011;3097;42.692;23.278;2023-04-19T04:10:32;4.57;;;4.13;;
6131;SDS011;3097;42.692;23.278;2023-04-19T04:12:57;4.77;;;4.37;;
6131;SDS011;3097;42.692;23.278;2023-04-19T04:15:23;4.70;;;4.30;;
6131;SDS011;3097;42.692;23.278;2023-04-19T04:17:49;4.50;;;4.10;;
6131;SDS011;3097;42.692;23.278;2023-04-19T04:20:14;6.50;;;3.80;;
6131;SDS011;3097;42.692;23.278;2023-04-19T04:22:43;5.10;;;4.33;;
6131;SDS011;3097;42.692;23.278;2023-04-19T04:25:10;4.43;;;3.93;;
6131;SDS011;3097;42.692;23.278;2023-04-19T04:27:36;4.63;;;3.57;;
6131;SDS011;3097;42.692;23.278;2023-04-19T04:30:02;4.47;;;4.10;;
6131;SDS011;3097;42.692;23.278;2023-04-19T04:32:28;6.53;;;5.13;;
6131;SDS011;3097;42.692;23.278;2023-04-19T04:34:54;5.17;;;4.67;;
6131;SDS011;3097;42.692;23.278;2023-04-19T04:37:19;5.17;;;4.07;;
6131;SDS011;3097;42.692;23.278;2023-04-19T04:39:45;4.60;;;4.20;;
6131;SDS011;3097;42.692;23.278;2023-04-19T04:42:13;4.50;;;4.20;;
6131;SDS011;3097;42.692;23.278;2023-04-19T04:44:39;8.93;;;5.23;;
6131;SDS011;3097;42.692;23.278;2023-04-19T04:47:05;5.50;;;5.00;;
6131;SDS011;3097;42.692;23.278;2023-04-19T04:49:31;5.10;;;4.70;;
6131;SDS011;3097;42.692;23.278;2023-04-19T04:51:56;5.30;;;4.80;;
6131;SDS011;3097;42.692;23.278;2023-04-19T04:54:22;4.97;;;4.57;;
6131;SDS011;3097;42.692;23.278;2023-04-19T04:56:48;5.40;;;4.90;;
6131;SDS011;3097;42.692;23.278;2023-04-19T04:59:13;5.80;;;5.23;;
6131;SDS011;3097;42.692;23.278;2023-04-19T05:01:39;5.37;;;4.87;;
6131;SDS011;3097;42.692;23.278;2023-04-19T05:04:04;9.10;;;5.10;;
6131;SDS011;3097;42.692;23.278;2023-04-19T05:06:29;5.03;;;4.63;;
6131;SDS011;3097;42.692;23.278;2023-04-19T05:08:55;4.97;;;4.43;;
6131;SDS011;3097;42.692;23.278;2023-04-19T05:11:20;5.00;;;4.50;;
6131;SDS011;3097;42.692;23.278;2023-04-19T05:13:46;5.23;;;4.83;;
6131;SDS011;3097;42.692;23.278;2023-04-19T05:16:11;5.90;;;5.40;;
6131;SDS011;3097;42.692;23.278;2023-04-19T05:18:37;6.00;;;5.40;;
6131;SDS011;3097;42.692;23.278;2023-04-19T05:21:02;5.83;;;5.33;;
6131;SDS011;3097;42.692;23.278;2023-04-19T05:23:28;5.87;;;5.27;;
6131;SDS011;3097;42.692;23.278;2023-04-19T05:25:53;21.80;;;10.73;;
6131;SDS011;3097;42.692;23.278;2023-04-19T05:28:18;5.00;;;4.60;;
6131;SDS011;3097;42.692;23.278;2023-04-19T05:30:44;10.30;;;4.50;;
6131;SDS011;3097;42.692;23.278;2023-04-19T05:33:10;5.53;;;5.00;;
6131;SDS011;3097;42.692;23.278;2023-04-19T05:35:35;5.27;;;4.77;;
6131;SDS011;3097;42.692;23.278;2023-04-19T05:38:00;5.73;;;4.70;;
6131;SDS011;3097;42.692;23.278;2023-04-19T05:40:26;5.73;;;5.03;;
6131;SDS011;3097;42.692;23.278;2023-04-19T05:42:53;5.63;;;5.00;;
6131;SDS011;3097;42.692;23.278;2023-04-19T05:45:20;5.57;;;5.07;;
6131;SDS011;3097;42.692;23.278;2023-04-19T05:47:46;6.57;;;4.47;;
6131;SDS011;3097;42.692;23.278;2023-04-19T05:50:11;5.17;;;4.77;;
6131;SDS011;3097;42.692;23.278;2023-04-19T05:52:39;4.97;;;3.77;;
6131;SDS011;3097;42.692;23.278;2023-04-19T05:55:05;5.43;;;4.93;;
6131;SDS011;3097;42.692;23.278;2023-04-19T05:57:31;5.17;;;4.67;;
6131;SDS011;3097;42.692;23.278;2023-04-19T05:59:56;5.60;;;4.30;;
6131;SDS011;3097;42.692;23.278;2023-04-19T06:02:22;4.77;;;4.37;;
6131;SDS011;3097;42.692;23.278;2023-04-19T06:04:47;6.13;;;4.63;;
6131;SDS011;3097;42.692;23.278;2023-04-19T06:07:13;9.00;;;5.60;;
6131;SDS011;3097;42.692;23.278;2023-04-19T06:09:38;5.97;;;5.13;;
6131;SDS011;3097;42.692;23.278;2023-04-19T06:12:04;9.53;;;6.93;;
6131;SDS011;3097;42.692;23.278;2023-04-19T06:14:30;7.87;;;5.73;;
6131;SDS011;3097;42.692;23.278;2023-04-19T06:16:55;4.30;;;3.90;;
6131;SDS011;3097;42.692;23.278;2023-04-19T06:19:21;4.83;;;4.30;;
6131;SDS011;3097;42.692;23.278;2023-04-19T06:21:46;5.10;;;4.20;;
6131;SDS011;3097;42.692;23.278;2023-04-19T06:24:12;4.53;;;3.80;;
6131;SDS011;3097;42.692;23.278;2023-04-19T06:26:37;4.13;;;3.73;;
6131;SDS011;3097;42.692;23.278;2023-04-19T06:29:02;6.43;;;3.80;;
6131;SDS011;3097;42.692;23.278;2023-04-19T06:31:28;5.03;;;4.40;;
6131;SDS011;3097;42.692;23.278;2023-04-19T06:33:54;5.23;;;4.73;;
6131;SDS011;3097;42.692;23.278;2023-04-19T06:36:19;4.80;;;4.30;;
6131;SDS011;3097;42.692;23.278;2023-04-19T06:38:45;4.73;;;3.80;;
6131;SDS011;3097;42.692;23.278;2023-04-19T06:41:10;5.80;;;4.73;;
6131;SDS011;3097;42.692;23.278;2023-04-19T06:43:36;5.13;;;4.63;;
6131;SDS011;3097;42.692;23.278;2023-04-19T06:46:02;4.77;;;4.37;;
6131;SDS011;3097;42.692;23.278;2023-04-19T06:48:28;4.83;;;4.43;;
6131;SDS011;3097;42.692;23.278;2023-04-19T06:50:54;4.53;;;4.13;;
6131;SDS011;3097;42.692;23.278;2023-04-19T06:53:20;4.50;;;4.10;;
6131;SDS011;3097;42.692;23.278;2023-04-19T06:55:46;4.83;;;4.43;;
6131;SDS011;3097;42.692;23.278;2023-04-19T06:58:11;5.70;;;4.47;;
6131;SDS011;3097;42.692;23.278;2023-04-19T07:00:37;4.43;;;4.00;;
6131;SDS011;3097;42.692;23.278;2023-04-19T07:03:02;5.40;;;4.90;;
6131;SDS011;3097;42.692;23.278;2023-04-19T07:05:28;6.13;;;5.10;;
6131;SDS011;3097;42.692;23.278;2023-04-19T07:07:54;5.63;;;5.07;;
6131;SDS011;3097;42.692;23.278;2023-04-19T07:10:20;7.63;;;5.70;;
6131;SDS011;3097;42.692;23.278;2023-04-19T07:12:45;5.67;;;5.03;;
6131;SDS011;3097;42.692;23.278;2023-04-19T07:15:11;4.40;;;4.00;;
6131;SDS011;3097;42.692;23.278;2023-04-19T07:17:36;4.73;;;3.30;;
6131;SDS011;3097;42.692;23.278;2023-04-19T07:20:02;4.53;;;4.13;;
6131;SDS011;3097;42.692;23.278;2023-04-19T07:22:30;6.27;;;4.70;;
6131;SDS011;3097;42.692;23.278;2023-04-19T07:24:56;5.40;;;4.90;;
6131;SDS011;3097;42.692;23.278;2023-04-19T07:27:21;5.07;;;4.23;;
6131;SDS011;3097;42.692;23.278;2023-04-19T07:29:46;4.53;;;4.13;;
6131;SDS011;3097;42.692;23.278;2023-04-19T07:32:12;6.23;;;4.80;;
6131;SDS011;3097;42.692;23.278;2023-04-19T07:34:38;6.33;;;5.73;;
6131;SDS011;3097;42.692;23.278;2023-04-19T07:37:05;10.03;;;7.00;;
6131;SDS011;3097;42.692;23.278;2023-04-19T07:39:31;7.20;;;6.50;;
6131;SDS011;3097;42.692;23.278;2023-04-19T07:41:57;12.37;;;8.07;;
6131;SDS011;3097;42.692;23.278;2023-04-19T07:44:22;7.30;;;4.77;;
6131;SDS011;3097;42.692;23.278;2023-04-19T07:46:48;4.80;;;4.20;;
6131;SDS011;3097;42.692;23.278;2023-04-19T07:49:13;4.70;;;4.20;;
6131;SDS011;3097;42.692;23.278;2023-04-19T07:51:39;7.73;;;4.20;;
6131;SDS011;3097;42.692;23.278;2023-04-19T07:54:05;4.73;;;4.33;;
6131;SDS011;3097;42.692;23.278;2023-04-19T07:56:31;4.73;;;4.33;;
6131;SDS011;3097;42.692;23.278;2023-04-19T07:58:57;4.23;;;3.83;;
6131;SDS011;3097;42.692;23.278;2023-04-19T08:01:23;4.30;;;3.80;;
6131;SDS011;3097;42.692;23.278;2023-04-19T08:03:48;6.93;;;4.27;;
6131;SDS011;3097;42.692;23.278;2023-04-19T08:06:14;3.50;;;3.20;;
6131;SDS011;3097;42.692;23.278;2023-04-19T08:08:39;4.93;;;3.00;;
6131;SDS011;3097;42.692;23.278;2023-04-19T08:11:04;3.67;;;3.37;;
6131;SDS011;3097;42.692;23.278;2023-04-19T08:13:30;5.97;;;3.37;;
6131;SDS011;3097;42.692;23.278;2023-04-19T08:15:56;9.43;;;7.87;;
6131;SDS011;3097;42.692;23.278;2023-04-19T08:18:21;16.03;;;9.60;;
6131;SDS011;3097;42.692;23.278;2023-04-19T08:20:47;5.50;;;4.50;;
6131;SDS011;3097;42.692;23.278;2023-04-19T08:23:12;4.93;;;4.53;;
6131;SDS011;3097;42.692;23.278;2023-04-19T08:25:38;6.77;;;4.00;;
6131;SDS011;3097;42.692;23.278;2023-04-19T08:28:04;4.73;;;4.27;;
6131;SDS011;3097;42.692;23.278;2023-04-19T08:30:30;3.90;;;3.43;;
6131;SDS011;3097;42.692;23.278;2023-04-19T08:32:56;5.73;;;3.60;;
6131;SDS011;3097;42.692;23.278;2023-04-19T08:35:22;6.93;;;4.23;;
6131;SDS011;3097;42.692;23.278;2023-04-19T08:37:47;5.40;;;4.60;;
6131;SDS011;3097;42.692;23.278;2023-04-19T08:40:13;5.20;;;3.57;;
6131;SDS011;3097;42.692;23.278;2023-04-19T08:42:41;4.67;;;4.27;;
6131;SDS011;3097;42.692;23.278;2023-04-19T08:45:07;9.57;;;3.47;;
6131;SDS011;3097;42.692;23.278;2023-04-19T08:47:35;4.70;;;4.30;;
6131;SDS011;3097;42.692;23.278;2023-04-19T08:50:02;5.83;;;5.17;;
6131;SDS011;3097;42.692;23.278;2023-04-19T08:52:29;5.17;;;4.43;;
6131;SDS011;3097;42.692;23.278;2023-04-19T08:54:59;4.57;;;3.80;;
6131;SDS011;3097;42.692;23.278;2023-04-19T08:57:29;3.70;;;3.40;;
6131;SDS011;3097;42.692;23.278;2023-04-19T09:00:02;4.50;;;3.80;;
6131;SDS011;3097;42.692;23.278;2023-04-19T09:02:45;6.23;;;2.67;;
6131;SDS011;3097;42.692;23.278;2023-04-19T09:05:15;2.83;;;2.57;;
6131;SDS011;3097;42.692;23.278;2023-04-19T09:07:42;3.20;;;2.93;;
6131;SDS011;3097;42.692;23.278;2023-04-19T09:10:08;2.90;;;2.60;;
6131;SDS011;3097;42.692;23.278;2023-04-19T09:12:36;2.70;;;2.50;;
6131;SDS011;3097;42.692;23.278;2023-04-19T09:15:02;3.57;;;3.27;;
6131;SDS011;3097;42.692;23.278;2023-04-19T09:17:29;2.60;;;2.40;;
6131;SDS011;3097;42.692;23.278;2023-04-19T09:19:55;3.00;;;2.80;;
6131;SDS011;3097;42.692;23.278;2023-04-19T09:22:22;2.70;;;2.50;;
6131;SDS011;3097;42.692;23.278;2023-04-19T09:24:48;4.47;;;4.13;;
6131;SDS011;3097;42.692;23.278;2023-04-19T09:29:53;3.23;;;3.03;;
6131;SDS011;3097;42.692;23.278;2023-04-19T09:32:19;3.57;;;2.73;;
6131;SDS011;3097;42.692;23.278;2023-04-19T09:37:21;2.83;;;2.63;;
6131;SDS011;3097;42.692;23.278;2023-04-19T09:39:47;2.93;;;2.73;;
6131;SDS011;3097;42.692;23.278;2023-04-19T09:42:13;2.30;;;2.20;;
6131;SDS011;3097;42.692;23.278;2023-04-19T09:44:39;3.10;;;2.90;;
6131;SDS011;3097;42.692;23.278;2023-04-19T09:50:09;2.23;;;2.13;;
6131;SDS011;3097;42.692;23.278;2023-04-19T09:52:36;2.57;;;2.47;;
6131;SDS011;3097;42.692;23.278;2023-04-19T09:55:02;2.73;;;2.53;;
6131;SDS011;3097;42.692;23.278;2023-04-19T09:57:32;1.83;;;1.73;;
6131;SDS011;3097;42.692;23.278;2023-04-19T09:59:59;2.50;;;2.30;;
6131;SDS011;3097;42.692;23.278;2023-04-19T10:02:29;4.27;;;2.50;;
6131;SDS011;3097;42.692;23.278;2023-04-19T10:04:58;5.33;;;3.50;;
6131;SDS011;3097;42.692;23.278;2023-04-19T10:07:24;3.80;;;3.50;;
6131;SDS011;3097;42.692;23.278;2023-04-19T10:09:51;5.17;;;3.53;;
6131;SDS011;3097;42.692;23.278;2023-04-19T10:12:19;6.53;;;3.30;;
6131;SDS011;3097;42.692;23.278;2023-04-19T10:14:47;3.20;;;3.00;;
6131;SDS011;3097;42.692;23.278;2023-04-19T10:17:13;3.00;;;2.80;;
6131;SDS011;3097;42.692;23.278;2023-04-19T10:19:40;3.13;;;2.90;;
6131;SDS011;3097;42.692;23.278;2023-04-19T10:22:07;3.10;;;2.80;;
6131;SDS011;3097;42.692;23.278;2023-04-19T10:24:33;4.63;;;2.80;;
6131;SDS011;3097;42.692;23.278;2023-04-19T10:32:43;2.70;;;2.50;;
6131;SDS011;3097;42.692;23.278;2023-04-19T10:35:16;3.17;;;2.97;;
6131;SDS011;3097;42.692;23.278;2023-04-19T10:38:04;2.97;;;2.77;;
6131;SDS011;3097;42.692;23.278;2023-04-19T10:46:02;3.53;;;3.23;;
6131;SDS011;3097;42.692;23.278;2023-04-19T10:48:38;3.40;;;3.10;;
6131;SDS011;3097;42.692;23.278;2023-04-19T10:51:11;3.77;;;3.40;;
6131;SDS011;3097;42.692;23.278;2023-04-19T10:53:42;4.00;;;3.63;;
6131;SDS011;3097;42.692;23.278;2023-04-19T10:56:07;4.07;;;3.77;;
6131;SDS011;3097;42.692;23.278;2023-04-19T10:59:10;4.23;;;2.60;;
6131;SDS011;3097;42.692;23.278;2023-04-19T11:01:40;4.10;;;3.73;;
6131;SDS011;3097;42.692;23.278;2023-04-19T11:09:25;3.67;;;3.30;;
6131;SDS011;3097;42.692;23.278;2023-04-19T11:11:51;3.40;;;3.10;;
6131;SDS011;3097;42.692;23.278;2023-04-19T11:14:19;3.50;;;3.20;;
6131;SDS011;3097;42.692;23.278;2023-04-19T11:16:45;3.43;;;3.13;;
6131;SDS011;3097;42.692;23.278;2023-04-19T11:19:14;3.33;;;3.13;;
6131;SDS011;3097;42.692;23.278;2023-04-19T11:21:48;3.20;;;3.00;;
6131;SDS011;3097;42.692;23.278;2023-04-19T11:24:14;2.97;;;2.77;;
6131;SDS011;3097;42.692;23.278;2023-04-19T11:26:43;3.73;;;3.43;;
6131;SDS011;3097;42.692;23.278;2023-04-19T11:29:10;5.00;;;3.50;;
6131;SDS011;3097;42.692;23.278;2023-04-19T11:31:36;2.80;;;2.60;;
6131;SDS011;3097;42.692;23.278;2023-04-19T11:34:02;2.40;;;2.20;;
6131;SDS011;3097;42.692;23.278;2023-04-19T11:36:27;6.27;;;5.67;;
6131;SDS011;3097;42.692;23.278;2023-04-19T11:38:53;3.70;;;3.20;;
6131;SDS011;3097;42.692;23.278;2023-04-19T11:41:18;3.33;;;3.10;;
6131;SDS011;3097;42.692;23.278;2023-04-19T11:43:44;3.37;;;3.07;;
6131;SDS011;3097;42.692;23.278;2023-04-19T11:46:11;3.20;;;3.00;;
6131;SDS011;3097;42.692;23.278;2023-04-19T11:48:50;2.83;;;2.63;;
6131;SDS011;3097;42.692;23.278;2023-04-19T11:51:17;2.73;;;2.53;;
6131;SDS011;3097;42.692;23.278;2023-04-19T11:53:42;10.63;;;7.97;;
6131;SDS011;3097;42.692;23.278;2023-04-19T11:56:08;5.93;;;5.33;;
6131;SDS011;3097;42.692;23.278;2023-04-19T11:58:38;4.07;;;3.07;;
6131;SDS011;3097;42.692;23.278;2023-04-19T12:01:05;4.73;;;2.83;;
6131;SDS011;3097;42.692;23.278;2023-04-19T12:03:31;2.50;;;2.40;;
6131;SDS011;3097;42.692;23.278;2023-04-19T12:06:00;2.40;;;2.30;;
6131;SDS011;3097;42.692;23.278;2023-04-19T12:08:36;8.17;;;6.87;;
6131;SDS011;3097;42.692;23.278;2023-04-19T12:11:06;3.40;;;3.10;;
6131;SDS011;3097;42.692;23.278;2023-04-19T12:13:31;2.67;;;2.47;;
6131;SDS011;3097;42.692;23.278;2023-04-19T12:15:57;3.07;;;2.83;;
6131;SDS011;3097;42.692;23.278;2023-04-19T12:18:23;2.33;;;2.13;;
6131;SDS011;3097;42.692;23.278;2023-04-19T12:20:50;2.17;;;2.07;;
6131;SDS011;3097;42.692;23.278;2023-04-19T12:23:17;3.23;;;1.67;;
6131;SDS011;3097;42.692;23.278;2023-04-19T12:25:44;2.43;;;2.10;;
6131;SDS011;3097;42.692;23.278;2023-04-19T12:28:11;2.40;;;2.30;;
6131;SDS011;3097;42.692;23.278;2023-04-19T12:30:37;2.47;;;2.37;;
6131;SDS011;3097;42.692;23.278;2023-04-19T12:33:03;3.20;;;3.00;;
6131;SDS011;3097;42.692;23.278;2023-04-19T12:35:33;3.17;;;2.97;;
6131;SDS011;3097;42.692;23.278;2023-04-19T12:37:59;3.50;;;3.20;;
6131;SDS011;3097;42.692;23.278;2023-04-19T12:40:25;3.83;;;3.53;;
6131;SDS011;3097;42.692;23.278;2023-04-19T12:42:52;4.47;;;4.00;;
6131;SDS011;3097;42.692;23.278;2023-04-19T12:45:36;5.00;;;4.60;;
6131;SDS011;3097;42.692;23.278;2023-04-19T12:48:02;5.00;;;4.60;;
6131;SDS011;3097;42.692;23.278;2023-04-19T12:50:27;7.60;;;5.80;;
6131;SDS011;3097;42.692;23.278;2023-04-19T12:52:52;6.73;;;5.33;;
6131;SDS011;3097;42.692;23.278;2023-04-19T12:55:18;6.67;;;5.90;;
6131;SDS011;3097;42.692;23.278;2023-04-19T12:57:44;8.17;;;5.80;;
6131;SDS011;3097;42.692;23.278;2023-04-19T13:00:09;3.63;;;3.33;;
6131;SDS011;3097;42.692;23.278;2023-04-19T13:02:36;2.30;;;2.20;;
6131;SDS011;3097;42.692;23.278;2023-04-19T13:05:02;2.50;;;2.30;;
6131;SDS011;3097;42.692;23.278;2023-04-19T13:07:29;2.30;;;2.20;;
6131;SDS011;3097;42.692;23.278;2023-04-19T13:09:55;2.37;;;2.27;;
6131;SDS011;3097;42.692;23.278;2023-04-19T13:12:21;1.80;;;1.70;;
6131;SDS011;3097;42.692;23.278;2023-04-19T13:14:47;2.03;;;1.93;;
6131;SDS011;3097;42.692;23.278;2023-04-19T13:17:18;1.90;;;1.80;;
6131;SDS011;3097;42.692;23.278;2023-04-19T13:19:44;2.10;;;1.90;;
6131;SDS011;3097;42.692;23.278;2023-04-19T13:22:09;2.20;;;2.03;;
6131;SDS011;3097;42.692;23.278;2023-04-19T13:24:35;1.97;;;1.87;;
6131;SDS011;3097;42.692;23.278;2023-04-19T13:27:02;7.37;;;4.43;;
6131;SDS011;3097;42.692;23.278;2023-04-19T13:29:27;2.57;;;2.37;;
6131;SDS011;3097;42.692;23.278;2023-04-19T13:31:53;3.10;;;1.93;;
6131;SDS011;3097;42.692;23.278;2023-04-19T13:34:19;3.20;;;2.87;;
6131;SDS011;3097;42.692;23.278;2023-04-19T13:36:45;2.37;;;2.27;;
6131;SDS011;3097;42.692;23.278;2023-04-19T13:39:11;3.00;;;2.80;;
6131;SDS011;3097;42.692;23.278;2023-04-19T13:41:36;2.80;;;2.60;;
6131;SDS011;3097;42.692;23.278;2023-04-19T13:44:02;2.50;;;2.30;;
6131;SDS011;3097;42.692;23.278;2023-04-19T13:46:30;2.90;;;2.70;;
6131;SDS011;3097;42.692;23.278;2023-04-19T13:48:56;1.73;;;1.63;;
6131;SDS011;3097;42.692;23.278;2023-04-19T13:51:22;1.80;;;1.70;;
6131;SDS011;3097;42.692;23.278;2023-04-19T13:53:47;4.13;;;3.60;;
6131;SDS011;3097;42.692;23.278;2023-04-19T13:56:13;1.70;;;1.30;;
6131;SDS011;3097;42.692;23.278;2023-04-19T13:58:39;3.60;;;3.30;;
6131;SDS011;3097;42.692;23.278;2023-04-19T14:01:04;4.20;;;2.60;;
6131;SDS011;3097;42.692;23.278;2023-04-19T14:03:30;2.00;;;1.90;;
6131;SDS011;3097;42.692;23.278;2023-04-19T14:05:55;2.47;;;2.10;;
6131;SDS011;3097;42.692;23.278;2023-04-19T14:08:21;2.10;;;2.00;;
6131;SDS011;3097;42.692;23.278;2023-04-19T14:10:47;2.00;;;1.90;;
6131;SDS011;3097;42.692;23.278;2023-04-19T14:13:13;3.70;;;2.77;;
6131;SDS011;3097;42.692;23.278;2023-04-19T14:15:39;2.33;;;1.50;;
6131;SDS011;3097;42.692;23.278;2023-04-19T14:18:04;2.10;;;2.00;;
6131;SDS011;3097;42.692;23.278;2023-04-19T14:20:29;2.37;;;2.17;;
6131;SDS011;3097;42.692;23.278;2023-04-19T14:22:55;2.30;;;2.10;;
6131;SDS011;3097;42.692;23.278;2023-04-19T14:25:23;2.37;;;2.17;;
6131;SDS011;3097;42.692;23.278;2023-04-19T14:27:48;3.00;;;2.70;;
6131;SDS011;3097;42.692;23.278;2023-04-19T14:30:14;2.57;;;2.37;;
6131;SDS011;3097;42.692;23.278;2023-04-19T14:32:39;2.60;;;2.50;;
6131;SDS011;3097;42.692;23.278;2023-04-19T14:35:05;2.63;;;2.43;;
6131;SDS011;3097;42.692;23.278;2023-04-19T14:37:32;2.40;;;2.20;;
6131;SDS011;3097;42.692;23.278;2023-04-19T14:39:58;3.10;;;2.83;;
6131;SDS011;3097;42.692;23.278;2023-04-19T14:42:25;3.30;;;3.00;;
6131;SDS011;3097;42.692;23.278;2023-04-19T14:44:50;3.37;;;2.40;;
6131;SDS011;3097;42.692;23.278;2023-04-19T14:47:16;4.50;;;4.10;;
6131;SDS011;3097;42.692;23.278;2023-04-19T14:49:44;3.80;;;3.50;;
6131;SDS011;3097;42.692;23.278;2023-04-19T14:52:10;5.00;;;3.17;;
6131;SDS011;3097;42.692;23.278;2023-04-19T14:54:35;3.53;;;2.70;;
6131;SDS011;3097;42.692;23.278;2023-04-19T14:57:01;3.37;;;3.07;;
6131;SDS011;3097;42.692;23.278;2023-04-19T14:59:27;4.07;;;3.70;;
6131;SDS011;3097;42.692;23.278;2023-04-19T15:01:52;12.67;;;7.23;;
6131;SDS011;3097;42.692;23.278;2023-04-19T15:04:18;3.90;;;3.53;;
6131;SDS011;3097;42.692;23.278;2023-04-19T15:06:43;4.03;;;3.73;;
6131;SDS011;3097;42.692;23.278;2023-04-19T15:09:09;3.97;;;3.57;;
6131;SDS011;3097;42.692;23.278;2023-04-19T15:11:53;3.87;;;3.57;;
6131;SDS011;3097;42.692;23.278;2023-04-19T15:14:18;3.50;;;3.20;;
6131;SDS011;3097;42.692;23.278;2023-04-19T15:16:44;3.80;;;3.50;;
6131;SDS011;3097;42.692;23.278;2023-04-19T15:19:10;3.57;;;2.90;;